sensor_id;sensor_type;location;lat;lon;timestamp;P1;durP1;ratioP1;P2;durP2;ratioP2
74810;SDS011;63340;48.404;-4.506;2022-12-07T00:00:41;47.50;;;42.00;;
74810;SDS011;63340;48.404;-4.506;2022-12-07T00:03:16;56.75;;;48.25;;
74810;SDS011;63340;48.404;-4.506;2022-12-07T00:05:56;52.75;;;44.25;;
74810;SDS011;63340;48.404;-4.506;2022-12-07T00:08:27;33.25;;;33.25;;
74810;SDS011;63340;48.404;-4.506;2022-12-07T00:14:17;47.25;;;40.00;;
74810;SDS011;63340;48.404;-4.506;2022-12-07T00:16:43;46.50;;;39.25;;
74810;SDS011;63340;48.404;-4.506;2022-12-07T00:19:10;43.25;;;39.00;;
74810;SDS011;63340;48.404;-4.506;2022-12-07T00:21:40;40.00;;;37.50;;
74810;SDS011;63340;48.404;-4.506;2022-12-07T00:24:17;40.75;;;38.25;;
74810;SDS011;63340;48.404;-4.506;2022-12-07T00:26:57;31.00;;;30.00;;
74810;SDS011;63340;48.404;-4.506;2022-12-07T00:32:06;44.50;;;40.00;;
74810;SDS011;63340;48.404;-4.506;2022-12-07T00:34:44;41.50;;;38.00;;
74810;SDS011;63340;48.404;-4.506;2022-12-07T00:37:18;43.25;;;38.00;;
74810;SDS011;63340;48.404;-4.506;2022-12-07T00:39:52;45.75;;;39.50;;
74810;SDS011;63340;48.404;-4.506;2022-12-07T00:42:24;43.00;;;38.25;;
74810;SDS011;63340;48.404;-4.506;2022-12-07T00:44:54;46.50;;;40.00;;
74810;SDS011;63340;48.404;-4.506;2022-12-07T00:47:26;50.50;;;42.00;;
74810;SDS011;63340;48.404;-4.506;2022-12-07T00:50:04;32.75;;;28.25;;
74810;SDS011;63340;48.404;-4.506;2022-12-07T00:52:33;44.00;;;39.50;;
74810;SDS011;63340;48.404;-4.506;2022-12-07T00:57:40;42.25;;;38.00;;
74810;SDS011;63340;48.404;-4.506;2022-12-07T01:00:21;28.50;;;28.25;;
74810;SDS011;63340;48.404;-4.506;2022-12-07T01:02:46;39.50;;;36.00;;
74810;SDS011;63340;48.404;-4.506;2022-12-07T01:05:15;39.75;;;35.75;;
74810;SDS011;63340;48.404;-4.506;2022-12-07T01:07:44;41.25;;;37.25;;
74810;SDS011;63340;48.404;-4.506;2022-12-07T01:10:17;35.75;;;34.50;;
74810;SDS011;63340;48.404;-4.506;2022-12-07T01:12:46;38.75;;;36.00;;
74810;SDS011;63340;48.404;-4.506;2022-12-07T01:15:16;38.25;;;36.50;;
74810;SDS011;63340;48.404;-4.506;2022-12-07T01:20:32;31.50;;;31.25;;
74810;SDS011;63340;48.404;-4.506;2022-12-07T01:22:58;40.75;;;36.50;;
74810;SDS011;63340;48.404;-4.506;2022-12-07T01:25:23;35.50;;;33.75;;
74810;SDS011;63340;48.404;-4.506;2022-12-07T01:27:58;41.25;;;36.25;;
74810;SDS011;63340;48.404;-4.506;2022-12-07T01:30:33;35.75;;;31.75;;
74810;SDS011;63340;48.404;-4.506;2022-12-07T01:33:17;32.25;;;31.25;;
74810;SDS011;63340;48.404;-4.506;2022-12-07T01:46:18;31.00;;;30.00;;
74810;SDS011;63340;48.404;-4.506;2022-12-07T01:49:33;28.50;;;25.25;;
74810;SDS011;63340;48.404;-4.506;2022-12-07T01:58:48;27.25;;;25.25;;
74810;SDS011;63340;48.404;-4.506;2022-12-07T02:01:27;22.75;;;22.25;;
74810;SDS011;63340;48.404;-4.506;2022-12-07T02:13:28;14.75;;;13.75;;
74810;SDS011;63340;48.404;-4.506;2022-12-07T02:16:38;12.00;;;12.00;;
74810;SDS011;63340;48.404;-4.506;2022-12-07T02:31:19;12.75;;;10.25;;
74810;SDS011;63340;48.404;-4.506;2022-12-07T02:34:08;11.75;;;11.00;;
74810;SDS011;63340;48.404;-4.506;2022-12-07T02:36:46;18.50;;;10.75;;
74810;SDS011;63340;48.404;-4.506;2022-12-07T02:43:02;9.50;;;9.00;;
74810;SDS011;63340;48.404;-4.506;2022-12-07T02:45:42;8.00;;;8.00;;
74810;SDS011;63340;48.404;-4.506;2022-12-07T02:48:19;10.25;;;9.50;;
74810;SDS011;63340;48.404;-4.506;2022-12-07T02:50:55;10.00;;;9.25;;
74810;SDS011;63340;48.404;-4.506;2022-12-07T02:53:33;10.00;;;8.75;;
74810;SDS011;63340;48.404;-4.506;2022-12-07T03:03:08;16.75;;;15.75;;
74810;SDS011;63340;48.404;-4.506;2022-12-07T03:08:46;25.50;;;23.00;;
74810;SDS011;63340;48.404;-4.506;2022-12-07T03:11:24;20.00;;;19.00;;
74810;SDS011;63340;48.404;-4.506;2022-12-07T03:14:33;28.50;;;24.50;;
74810;SDS011;63340;48.404;-4.506;2022-12-07T03:23:19;26.75;;;24.00;;
74810;SDS011;63340;48.404;-4.506;2022-12-07T03:26:26;29.00;;;28.00;;
74810;SDS011;63340;48.404;-4.506;2022-12-07T03:29:06;23.50;;;21.50;;
74810;SDS011;63340;48.404;-4.506;2022-12-07T03:35:17;25.25;;;24.75;;
74810;SDS011;63340;48.404;-4.506;2022-12-07T03:43:59;23.00;;;20.25;;
74810;SDS011;63340;48.404;-4.506;2022-12-07T03:46:36;22.75;;;22.00;;
74810;SDS011;63340;48.404;-4.506;2022-12-07T03:55:31;19.00;;;18.50;;
74810;SDS011;63340;48.404;-4.506;2022-12-07T03:58:07;16.00;;;15.75;;
74810;SDS011;63340;48.404;-4.506;2022-12-07T04:00:36;20.00;;;17.00;;
74810;SDS011;63340;48.404;-4.506;2022-12-07T04:03:07;17.25;;;15.75;;
74810;SDS011;63340;48.404;-4.506;2022-12-07T04:05:39;17.25;;;17.00;;
74810;SDS011;63340;48.404;-4.506;2022-12-07T04:08:27;20.75;;;16.25;;
74810;SDS011;63340;48.404;-4.506;2022-12-07T04:11:18;16.00;;;15.75;;
74810;SDS011;63340;48.404;-4.506;2022-12-07T04:14:17;25.50;;;21.25;;
74810;SDS011;63340;48.404;-4.506;2022-12-07T04:19:24;17.00;;;17.00;;
74810;SDS011;63340;48.404;-4.506;2022-12-07T04:21:53;14.00;;;11.50;;
74810;SDS011;63340;48.404;-4.506;2022-12-07T04:24:27;16.50;;;16.50;;
74810;SDS011;63340;48.404;-4.506;2022-12-07T04:27:15;16.75;;;16.50;;
74810;SDS011;63340;48.404;-4.506;2022-12-07T04:29:44;19.50;;;17.00;;
74810;SDS011;63340;48.404;-4.506;2022-12-07T04:35:08;16.50;;;15.50;;
74810;SDS011;63340;48.404;-4.506;2022-12-07T04:38:06;14.25;;;14.25;;
74810;SDS011;63340;48.404;-4.506;2022-12-07T04:40:31;16.50;;;16.00;;
74810;SDS011;63340;48.404;-4.506;2022-12-07T04:42:59;14.00;;;12.75;;
74810;SDS011;63340;48.404;-4.506;2022-12-07T04:52:08;14.25;;;12.25;;
74810;SDS011;63340;48.404;-4.506;2022-12-07T04:57:22;13.75;;;12.00;;
74810;SDS011;63340;48.404;-4.506;2022-12-07T04:59:47;10.75;;;10.75;;
74810;SDS011;63340;48.404;-4.506;2022-12-07T05:02:22;10.25;;;10.25;;
74810;SDS011;63340;48.404;-4.506;2022-12-07T05:05:02;11.50;;;10.50;;
74810;SDS011;63340;48.404;-4.506;2022-12-07T05:07:35;13.00;;;13.00;;
74810;SDS011;63340;48.404;-4.506;2022-12-07T05:10:09;12.25;;;10.00;;
74810;SDS011;63340;48.404;-4.506;2022-12-07T05:13:14;15.75;;;13.25;;
74810;SDS011;63340;48.404;-4.506;2022-12-07T05:15:47;14.50;;;12.25;;
74810;SDS011;63340;48.404;-4.506;2022-12-07T05:18:13;13.00;;;12.00;;
74810;SDS011;63340;48.404;-4.506;2022-12-07T05:20:40;13.50;;;12.25;;
74810;SDS011;63340;48.404;-4.506;2022-12-07T05:23:06;11.50;;;9.50;;
74810;SDS011;63340;48.404;-4.506;2022-12-07T05:25:31;13.50;;;13.50;;
74810;SDS011;63340;48.404;-4.506;2022-12-07T05:27:57;10.00;;;9.00;;
74810;SDS011;63340;48.404;-4.506;2022-12-07T05:30:23;14.75;;;13.25;;
74810;SDS011;63340;48.404;-4.506;2022-12-07T05:32:49;15.50;;;13.25;;
74810;SDS011;63340;48.404;-4.506;2022-12-07T05:35:15;13.75;;;11.25;;
74810;SDS011;63340;48.404;-4.506;2022-12-07T05:37:41;15.75;;;13.50;;
74810;SDS011;63340;48.404;-4.506;2022-12-07T05:40:07;21.50;;;16.75;;
74810;SDS011;63340;48.404;-4.506;2022-12-07T05:42:33;18.00;;;16.75;;
74810;SDS011;63340;48.404;-4.506;2022-12-07T05:44:59;12.00;;;12.00;;
74810;SDS011;63340;48.404;-4.506;2022-12-07T05:47:25;18.00;;;16.25;;
74810;SDS011;63340;48.404;-4.506;2022-12-07T05:49:50;14.50;;;13.00;;
74810;SDS011;63340;48.404;-4.506;2022-12-07T05:52:16;13.25;;;13.25;;
74810;SDS011;63340;48.404;-4.506;2022-12-07T05:54:41;16.50;;;15.50;;
74810;SDS011;63340;48.404;-4.506;2022-12-07T05:57:07;13.75;;;13.75;;
74810;SDS011;63340;48.404;-4.506;2022-12-07T05:59:34;26.25;;;26.25;;
74810;SDS011;63340;48.404;-4.506;2022-12-07T06:02:07;17.50;;;17.50;;
74810;SDS011;63340;48.404;-4.506;2022-12-07T06:04:41;21.50;;;18.50;;
74810;SDS011;63340;48.404;-4.506;2022-12-07T06:07:09;18.75;;;16.25;;
74810;SDS011;63340;48.404;-4.506;2022-12-07T06:09:35;18.25;;;18.00;;
74810;SDS011;63340;48.404;-4.506;2022-12-07T06:12:02;18.25;;;15.25;;
74810;SDS011;63340;48.404;-4.506;2022-12-07T06:14:47;17.25;;;16.25;;
74810;SDS011;63340;48.404;-4.506;2022-12-07T06:17:13;17.00;;;15.00;;
74810;SDS011;63340;48.404;-4.506;2022-12-07T06:19:39;21.50;;;16.75;;
74810;SDS011;63340;48.404;-4.506;2022-12-07T06:22:05;21.00;;;20.50;;
74810;SDS011;63340;48.404;-4.506;2022-12-07T06:24:32;20.00;;;18.25;;
74810;SDS011;63340;48.404;-4.506;2022-12-07T06:26:58;18.50;;;17.00;;
74810;SDS011;63340;48.404;-4.506;2022-12-07T06:29:24;18.00;;;17.25;;
74810;SDS011;63340;48.404;-4.506;2022-12-07T06:31:49;16.75;;;16.75;;
74810;SDS011;63340;48.404;-4.506;2022-12-07T06:34:16;17.25;;;15.00;;
74810;SDS011;63340;48.404;-4.506;2022-12-07T06:36:43;24.50;;;21.25;;
74810;SDS011;63340;48.404;-4.506;2022-12-07T06:39:09;20.00;;;17.25;;
74810;SDS011;63340;48.404;-4.506;2022-12-07T06:41:38;21.50;;;20.50;;
74810;SDS011;63340;48.404;-4.506;2022-12-07T06:44:04;18.00;;;17.50;;
74810;SDS011;63340;48.404;-4.506;2022-12-07T06:46:31;15.75;;;14.75;;
74810;SDS011;63340;48.404;-4.506;2022-12-07T06:48:56;11.75;;;10.25;;
74810;SDS011;63340;48.404;-4.506;2022-12-07T06:51:22;14.00;;;14.00;;
74810;SDS011;63340;48.404;-4.506;2022-12-07T06:53:47;11.25;;;11.25;;
74810;SDS011;63340;48.404;-4.506;2022-12-07T06:56:13;18.00;;;16.50;;
74810;SDS011;63340;48.404;-4.506;2022-12-07T06:58:38;21.00;;;18.00;;
74810;SDS011;63340;48.404;-4.506;2022-12-07T07:01:09;17.00;;;17.00;;
74810;SDS011;63340;48.404;-4.506;2022-12-07T07:03:38;19.50;;;16.50;;
74810;SDS011;63340;48.404;-4.506;2022-12-07T07:06:05;16.00;;;15.00;;
74810;SDS011;63340;48.404;-4.506;2022-12-07T07:08:32;17.25;;;16.00;;
74810;SDS011;63340;48.404;-4.506;2022-12-07T07:10:58;16.25;;;16.25;;
74810;SDS011;63340;48.404;-4.506;2022-12-07T07:13:23;18.75;;;16.75;;
74810;SDS011;63340;48.404;-4.506;2022-12-07T07:15:49;17.00;;;17.00;;
74810;SDS011;63340;48.404;-4.506;2022-12-07T07:18:15;19.25;;;17.25;;
74810;SDS011;63340;48.404;-4.506;2022-12-07T07:20:41;17.00;;;16.00;;
74810;SDS011;63340;48.404;-4.506;2022-12-07T07:23:06;16.50;;;16.50;;
74810;SDS011;63340;48.404;-4.506;2022-12-07T07:25:32;21.00;;;17.75;;
74810;SDS011;63340;48.404;-4.506;2022-12-07T07:27:58;18.25;;;15.25;;
74810;SDS011;63340;48.404;-4.506;2022-12-07T07:30:24;21.00;;;19.25;;
74810;SDS011;63340;48.404;-4.506;2022-12-07T07:32:49;15.25;;;15.00;;
74810;SDS011;63340;48.404;-4.506;2022-12-07T07:35:15;20.50;;;18.00;;
74810;SDS011;63340;48.404;-4.506;2022-12-07T07:43:47;21.00;;;19.00;;
74810;SDS011;63340;48.404;-4.506;2022-12-07T07:49:16;21.75;;;21.75;;
74810;SDS011;63340;48.404;-4.506;2022-12-07T07:51:42;21.00;;;17.00;;
74810;SDS011;63340;48.404;-4.506;2022-12-07T07:54:07;20.25;;;19.25;;
74810;SDS011;63340;48.404;-4.506;2022-12-07T07:56:33;14.25;;;14.00;;
74810;SDS011;63340;48.404;-4.506;2022-12-07T07:58:58;15.00;;;15.00;;
74810;SDS011;63340;48.404;-4.506;2022-12-07T08:01:24;15.25;;;15.25;;
74810;SDS011;63340;48.404;-4.506;2022-12-07T08:03:49;17.25;;;15.75;;
74810;SDS011;63340;48.404;-4.506;2022-12-07T08:06:15;10.00;;;10.00;;
74810;SDS011;63340;48.404;-4.506;2022-12-07T08:08:40;16.75;;;16.25;;
74810;SDS011;63340;48.404;-4.506;2022-12-07T08:11:07;11.50;;;11.25;;
74810;SDS011;63340;48.404;-4.506;2022-12-07T08:13:33;18.00;;;17.00;;
74810;SDS011;63340;48.404;-4.506;2022-12-07T08:16:03;14.25;;;12.50;;
74810;SDS011;63340;48.404;-4.506;2022-12-07T08:18:36;15.50;;;15.00;;
74810;SDS011;63340;48.404;-4.506;2022-12-07T08:21:06;15.75;;;14.00;;
74810;SDS011;63340;48.404;-4.506;2022-12-07T08:23:33;11.00;;;10.50;;
74810;SDS011;63340;48.404;-4.506;2022-12-07T08:26:02;12.00;;;10.50;;
74810;SDS011;63340;48.404;-4.506;2022-12-07T08:28:30;14.75;;;14.75;;
74810;SDS011;63340;48.404;-4.506;2022-12-07T08:31:02;16.50;;;16.00;;
74810;SDS011;63340;48.404;-4.506;2022-12-07T08:33:28;17.75;;;16.00;;
74810;SDS011;63340;48.404;-4.506;2022-12-07T08:35:54;18.25;;;17.25;;
74810;SDS011;63340;48.404;-4.506;2022-12-07T08:38:19;19.00;;;18.75;;
74810;SDS011;63340;48.404;-4.506;2022-12-07T08:40:53;19.00;;;19.00;;
74810;SDS011;63340;48.404;-4.506;2022-12-07T08:43:19;20.75;;;18.50;;
74810;SDS011;63340;48.404;-4.506;2022-12-07T08:45:45;18.25;;;17.75;;
74810;SDS011;63340;48.404;-4.506;2022-12-07T08:48:15;21.50;;;20.00;;
74810;SDS011;63340;48.404;-4.506;2022-12-07T08:50:46;28.75;;;27.00;;
74810;SDS011;63340;48.404;-4.506;2022-12-07T08:53:13;18.50;;;16.00;;
74810;SDS011;63340;48.404;-4.506;2022-12-07T08:55:38;18.50;;;18.00;;
74810;SDS011;63340;48.404;-4.506;2022-12-07T08:58:10;18.75;;;17.50;;
74810;SDS011;63340;48.404;-4.506;2022-12-07T09:00:36;18.50;;;17.00;;
74810;SDS011;63340;48.404;-4.506;2022-12-07T09:03:01;24.75;;;23.00;;
74810;SDS011;63340;48.404;-4.506;2022-12-07T09:05:29;20.50;;;19.75;;
74810;SDS011;63340;48.404;-4.506;2022-12-07T09:07:55;19.25;;;18.50;;
74810;SDS011;63340;48.404;-4.506;2022-12-07T09:10:24;22.75;;;20.25;;
74810;SDS011;63340;48.404;-4.506;2022-12-07T09:12:50;18.75;;;17.25;;
74810;SDS011;63340;48.404;-4.506;2022-12-07T09:15:18;18.25;;;17.00;;
74810;SDS011;63340;48.404;-4.506;2022-12-07T09:17:44;22.25;;;21.00;;
74810;SDS011;63340;48.404;-4.506;2022-12-07T09:20:09;21.00;;;21.00;;
74810;SDS011;63340;48.404;-4.506;2022-12-07T09:22:35;19.50;;;19.00;;
74810;SDS011;63340;48.404;-4.506;2022-12-07T09:25:01;27.00;;;25.50;;
74810;SDS011;63340;48.404;-4.506;2022-12-07T09:27:27;25.00;;;21.00;;
74810;SDS011;63340;48.404;-4.506;2022-12-07T09:29:53;19.00;;;19.00;;
74810;SDS011;63340;48.404;-4.506;2022-12-07T09:32:18;20.50;;;19.25;;
74810;SDS011;63340;48.404;-4.506;2022-12-07T09:34:44;12.75;;;12.75;;
74810;SDS011;63340;48.404;-4.506;2022-12-07T09:37:09;20.00;;;19.00;;
74810;SDS011;63340;48.404;-4.506;2022-12-07T09:39:37;19.00;;;18.00;;
74810;SDS011;63340;48.404;-4.506;2022-12-07T09:42:04;19.00;;;17.75;;
74810;SDS011;63340;48.404;-4.506;2022-12-07T09:44:31;21.25;;;20.00;;
74810;SDS011;63340;48.404;-4.506;2022-12-07T09:46:58;20.00;;;19.50;;
74810;SDS011;63340;48.404;-4.506;2022-12-07T09:49:24;23.25;;;19.75;;
74810;SDS011;63340;48.404;-4.506;2022-12-07T09:52:00;24.50;;;22.50;;
74810;SDS011;63340;48.404;-4.506;2022-12-07T09:57:36;25.75;;;24.50;;
74810;SDS011;63340;48.404;-4.506;2022-12-07T10:00:04;25.25;;;24.50;;
74810;SDS011;63340;48.404;-4.506;2022-12-07T10:02:37;20.75;;;20.75;;
74810;SDS011;63340;48.404;-4.506;2022-12-07T10:05:10;24.75;;;24.75;;
74810;SDS011;63340;48.404;-4.506;2022-12-07T10:07:41;24.25;;;20.00;;
74810;SDS011;63340;48.404;-4.506;2022-12-07T10:10:17;25.00;;;23.50;;
74810;SDS011;63340;48.404;-4.506;2022-12-07T10:16:46;16.00;;;16.00;;
74810;SDS011;63340;48.404;-4.506;2022-12-07T10:19:32;18.50;;;17.75;;
74810;SDS011;63340;48.404;-4.506;2022-12-07T12:45:22;18.25;;;17.00;;
74810;SDS011;63340;48.404;-4.506;2022-12-07T12:50:34;13.75;;;13.75;;
74810;SDS011;63340;48.404;-4.506;2022-12-07T12:53:13;13.75;;;13.25;;
74810;SDS011;63340;48.404;-4.506;2022-12-07T13:01:47;9.25;;;8.50;;
74810;SDS011;63340;48.404;-4.506;2022-12-07T13:04:17;15.25;;;14.50;;
74810;SDS011;63340;48.404;-4.506;2022-12-07T13:06:55;12.75;;;11.75;;
74810;SDS011;63340;48.404;-4.506;2022-12-07T13:09:28;12.75;;;12.50;;
74810;SDS011;63340;48.404;-4.506;2022-12-07T13:12:00;11.25;;;11.25;;
74810;SDS011;63340;48.404;-4.506;2022-12-07T13:20:02;13.50;;;12.75;;
74810;SDS011;63340;48.404;-4.506;2022-12-07T13:24:58;9.25;;;9.25;;
74810;SDS011;63340;48.404;-4.506;2022-12-07T13:27:30;7.50;;;7.00;;
74810;SDS011;63340;48.404;-4.506;2022-12-07T13:29:56;8.00;;;8.00;;
74810;SDS011;63340;48.404;-4.506;2022-12-07T13:32:24;10.00;;;10.00;;
74810;SDS011;63340;48.404;-4.506;2022-12-07T13:34:52;12.25;;;12.25;;
74810;SDS011;63340;48.404;-4.506;2022-12-07T13:37:20;12.25;;;12.00;;
74810;SDS011;63340;48.404;-4.506;2022-12-07T13:39:58;8.00;;;7.25;;
74810;SDS011;63340;48.404;-4.506;2022-12-07T13:42:30;9.75;;;8.25;;
74810;SDS011;63340;48.404;-4.506;2022-12-07T13:44:57;10.25;;;10.25;;
74810;SDS011;63340;48.404;-4.506;2022-12-07T13:49:59;11.75;;;9.50;;
74810;SDS011;63340;48.404;-4.506;2022-12-07T13:52:26;7.00;;;7.00;;
74810;SDS011;63340;48.404;-4.506;2022-12-07T13:55:01;13.75;;;11.75;;
74810;SDS011;63340;48.404;-4.506;2022-12-07T13:57:31;11.75;;;9.75;;
74810;SDS011;63340;48.404;-4.506;2022-12-07T14:00:03;13.00;;;12.50;;
74810;SDS011;63340;48.404;-4.506;2022-12-07T14:02:53;11.00;;;11.00;;
74810;SDS011;63340;48.404;-4.506;2022-12-07T14:05:29;10.00;;;10.00;;
74810;SDS011;63340;48.404;-4.506;2022-12-07T14:10:28;7.75;;;7.75;;
74810;SDS011;63340;48.404;-4.506;2022-12-07T14:13:02;10.25;;;9.50;;
74810;SDS011;63340;48.404;-4.506;2022-12-07T14:15:49;8.00;;;8.00;;
74810;SDS011;63340;48.404;-4.506;2022-12-07T14:18:30;12.00;;;10.75;;
74810;SDS011;63340;48.404;-4.506;2022-12-07T14:23:34;12.00;;;10.75;;
74810;SDS011;63340;48.404;-4.506;2022-12-07T14:26:04;14.50;;;13.50;;
74810;SDS011;63340;48.404;-4.506;2022-12-07T14:28:39;12.50;;;12.50;;
74810;SDS011;63340;48.404;-4.506;2022-12-07T14:31:12;11.50;;;11.50;;
74810;SDS011;63340;48.404;-4.506;2022-12-07T14:33:40;11.00;;;11.00;;
74810;SDS011;63340;48.404;-4.506;2022-12-07T14:36:08;10.75;;;10.00;;
74810;SDS011;63340;48.404;-4.506;2022-12-07T14:38:34;14.00;;;12.50;;
74810;SDS011;63340;48.404;-4.506;2022-12-07T14:40:59;15.00;;;13.75;;
74810;SDS011;63340;48.404;-4.506;2022-12-07T14:43:43;11.50;;;11.25;;
74810;SDS011;63340;48.404;-4.506;2022-12-07T14:46:10;11.25;;;11.25;;
74810;SDS011;63340;48.404;-4.506;2022-12-07T14:48:36;11.75;;;11.75;;
74810;SDS011;63340;48.404;-4.506;2022-12-07T14:51:01;11.00;;;11.00;;
74810;SDS011;63340;48.404;-4.506;2022-12-07T14:53:29;10.00;;;10.00;;
74810;SDS011;63340;48.404;-4.506;2022-12-07T14:55:59;12.00;;;12.00;;
74810;SDS011;63340;48.404;-4.506;2022-12-07T14:58:24;12.75;;;11.25;;
74810;SDS011;63340;48.404;-4.506;2022-12-07T15:00:50;9.75;;;9.00;;
74810;SDS011;63340;48.404;-4.506;2022-12-07T15:03:15;11.00;;;10.25;;
74810;SDS011;63340;48.404;-4.506;2022-12-07T15:05:41;9.25;;;8.75;;
74810;SDS011;63340;48.404;-4.506;2022-12-07T15:08:08;7.00;;;7.00;;
74810;SDS011;63340;48.404;-4.506;2022-12-07T15:10:35;7.00;;;6.00;;
74810;SDS011;63340;48.404;-4.506;2022-12-07T15:13:03;9.00;;;9.00;;
74810;SDS011;63340;48.404;-4.506;2022-12-07T15:15:48;12.00;;;11.25;;
74810;SDS011;63340;48.404;-4.506;2022-12-07T15:18:15;9.00;;;9.00;;
74810;SDS011;63340;48.404;-4.506;2022-12-07T15:20:41;9.50;;;9.50;;
74810;SDS011;63340;48.404;-4.506;2022-12-07T15:23:06;10.25;;;10.25;;
74810;SDS011;63340;48.404;-4.506;2022-12-07T15:25:34;12.00;;;12.00;;
74810;SDS011;63340;48.404;-4.506;2022-12-07T15:28:00;13.75;;;11.75;;
74810;SDS011;63340;48.404;-4.506;2022-12-07T15:30:25;16.25;;;16.25;;
74810;SDS011;63340;48.404;-4.506;2022-12-07T15:32:51;15.50;;;14.00;;
74810;SDS011;63340;48.404;-4.506;2022-12-07T15:35:18;14.00;;;10.50;;
74810;SDS011;63340;48.404;-4.506;2022-12-07T15:37:47;12.50;;;12.25;;
74810;SDS011;63340;48.404;-4.506;2022-12-07T15:40:15;11.50;;;10.25;;
74810;SDS011;63340;48.404;-4.506;2022-12-07T15:45:26;12.75;;;11.75;;
74810;SDS011;63340;48.404;-4.506;2022-12-07T15:47:52;9.75;;;9.25;;
74810;SDS011;63340;48.404;-4.506;2022-12-07T15:50:19;9.75;;;9.50;;
74810;SDS011;63340;48.404;-4.506;2022-12-07T15:52:45;12.75;;;12.75;;
74810;SDS011;63340;48.404;-4.506;2022-12-07T15:55:11;12.75;;;12.75;;
74810;SDS011;63340;48.404;-4.506;2022-12-07T15:57:39;10.25;;;10.25;;
74810;SDS011;63340;48.404;-4.506;2022-12-07T16:00:06;9.75;;;9.50;;
74810;SDS011;63340;48.404;-4.506;2022-12-07T16:02:36;15.75;;;15.25;;
74810;SDS011;63340;48.404;-4.506;2022-12-07T16:05:02;13.25;;;13.25;;
74810;SDS011;63340;48.404;-4.506;2022-12-07T16:07:28;15.25;;;14.00;;
74810;SDS011;63340;48.404;-4.506;2022-12-07T16:09:53;15.75;;;14.75;;
74810;SDS011;63340;48.404;-4.506;2022-12-07T16:12:19;16.25;;;16.25;;
74810;SDS011;63340;48.404;-4.506;2022-12-07T16:14:44;18.25;;;16.75;;
74810;SDS011;63340;48.404;-4.506;2022-12-07T16:17:10;17.75;;;17.25;;
74810;SDS011;63340;48.404;-4.506;2022-12-07T16:19:36;20.00;;;18.75;;
74810;SDS011;63340;48.404;-4.506;2022-12-07T16:22:05;17.25;;;16.25;;
74810;SDS011;63340;48.404;-4.506;2022-12-07T16:24:32;12.00;;;10.50;;
74810;SDS011;63340;48.404;-4.506;2022-12-07T16:26:59;16.25;;;15.50;;
74810;SDS011;63340;48.404;-4.506;2022-12-07T16:29:24;19.00;;;18.50;;
74810;SDS011;63340;48.404;-4.506;2022-12-07T16:31:50;21.50;;;20.50;;
74810;SDS011;63340;48.404;-4.506;2022-12-07T16:34:19;26.00;;;24.50;;
74810;SDS011;63340;48.404;-4.506;2022-12-07T16:36:52;24.25;;;21.75;;
74810;SDS011;63340;48.404;-4.506;2022-12-07T16:39:18;20.75;;;19.75;;
74810;SDS011;63340;48.404;-4.506;2022-12-07T16:41:43;19.25;;;18.75;;
74810;SDS011;63340;48.404;-4.506;2022-12-07T16:44:12;22.00;;;20.50;;
74810;SDS011;63340;48.404;-4.506;2022-12-07T16:46:49;19.75;;;19.00;;
74810;SDS011;63340;48.404;-4.506;2022-12-07T16:49:15;22.50;;;22.00;;
74810;SDS011;63340;48.404;-4.506;2022-12-07T16:52:06;22.25;;;20.00;;
74810;SDS011;63340;48.404;-4.506;2022-12-07T16:55:00;22.50;;;20.75;;
74810;SDS011;63340;48.404;-4.506;2022-12-07T16:57:49;23.75;;;22.25;;
74810;SDS011;63340;48.404;-4.506;2022-12-07T17:00:22;21.75;;;21.00;;
74810;SDS011;63340;48.404;-4.506;2022-12-07T17:02:51;26.25;;;24.25;;
74810;SDS011;63340;48.404;-4.506;2022-12-07T17:06:01;24.25;;;22.75;;
74810;SDS011;63340;48.404;-4.506;2022-12-07T17:08:26;29.00;;;28.25;;
74810;SDS011;63340;48.404;-4.506;2022-12-07T17:10:55;25.75;;;24.50;;
74810;SDS011;63340;48.404;-4.506;2022-12-07T17:13:21;30.00;;;30.00;;
74810;SDS011;63340;48.404;-4.506;2022-12-07T17:19:13;30.50;;;27.50;;
74810;SDS011;63340;48.404;-4.506;2022-12-07T17:21:42;29.75;;;29.75;;
74810;SDS011;63340;48.404;-4.506;2022-12-07T17:24:12;32.00;;;30.00;;
74810;SDS011;63340;48.404;-4.506;2022-12-07T17:26:39;29.25;;;28.25;;
74810;SDS011;63340;48.404;-4.506;2022-12-07T17:29:13;28.00;;;26.50;;
74810;SDS011;63340;48.404;-4.506;2022-12-07T17:31:46;28.00;;;25.00;;
74810;SDS011;63340;48.404;-4.506;2022-12-07T17:34:13;28.75;;;25.50;;
74810;SDS011;63340;48.404;-4.506;2022-12-07T17:36:43;32.25;;;27.00;;
74810;SDS011;63340;48.404;-4.506;2022-12-07T17:39:11;30.50;;;29.00;;
74810;SDS011;63340;48.404;-4.506;2022-12-07T17:41:39;25.00;;;25.00;;
74810;SDS011;63340;48.404;-4.506;2022-12-07T17:44:23;19.75;;;19.25;;
74810;SDS011;63340;48.404;-4.506;2022-12-07T17:46:49;23.75;;;23.75;;
74810;SDS011;63340;48.404;-4.506;2022-12-07T17:49:22;28.25;;;27.00;;
74810;SDS011;63340;48.404;-4.506;2022-12-07T17:51:49;31.25;;;31.00;;
74810;SDS011;63340;48.404;-4.506;2022-12-07T17:54:38;26.25;;;26.25;;
74810;SDS011;63340;48.404;-4.506;2022-12-07T18:00:30;30.25;;;29.25;;
74810;SDS011;63340;48.404;-4.506;2022-12-07T18:03:17;33.75;;;30.75;;
74810;SDS011;63340;48.404;-4.506;2022-12-07T18:05:44;31.25;;;30.25;;
74810;SDS011;63340;48.404;-4.506;2022-12-07T18:08:13;35.75;;;33.00;;
74810;SDS011;63340;48.404;-4.506;2022-12-07T18:10:43;46.75;;;39.50;;
74810;SDS011;63340;48.404;-4.506;2022-12-07T18:13:13;50.75;;;43.25;;
74810;SDS011;63340;48.404;-4.506;2022-12-07T18:15:58;45.50;;;40.00;;
74810;SDS011;63340;48.404;-4.506;2022-12-07T18:18:32;54.25;;;45.50;;
74810;SDS011;63340;48.404;-4.506;2022-12-07T18:21:08;48.00;;;41.75;;
74810;SDS011;63340;48.404;-4.506;2022-12-07T18:23:39;57.00;;;45.00;;
74810;SDS011;63340;48.404;-4.506;2022-12-07T18:26:12;51.75;;;43.25;;
74810;SDS011;63340;48.404;-4.506;2022-12-07T18:32:44;40.50;;;37.00;;
74810;SDS011;63340;48.404;-4.506;2022-12-07T18:35:10;47.50;;;39.50;;
74810;SDS011;63340;48.404;-4.506;2022-12-07T18:37:40;49.25;;;42.25;;
74810;SDS011;63340;48.404;-4.506;2022-12-07T18:40:09;47.00;;;39.00;;
74810;SDS011;63340;48.404;-4.506;2022-12-07T18:42:36;51.50;;;43.25;;
74810;SDS011;63340;48.404;-4.506;2022-12-07T18:45:04;57.00;;;46.00;;
74810;SDS011;63340;48.404;-4.506;2022-12-07T18:47:40;46.00;;;40.25;;
74810;SDS011;63340;48.404;-4.506;2022-12-07T18:50:07;52.00;;;43.75;;
74810;SDS011;63340;48.404;-4.506;2022-12-07T18:52:33;49.50;;;42.00;;
74810;SDS011;63340;48.404;-4.506;2022-12-07T18:54:59;40.25;;;36.75;;
74810;SDS011;63340;48.404;-4.506;2022-12-07T19:00:43;40.25;;;37.50;;
74810;SDS011;63340;48.404;-4.506;2022-12-07T19:03:11;35.00;;;33.25;;
74810;SDS011;63340;48.404;-4.506;2022-12-07T19:08:59;33.25;;;32.25;;
74810;SDS011;63340;48.404;-4.506;2022-12-07T19:11:27;32.50;;;31.00;;
74810;SDS011;63340;48.404;-4.506;2022-12-07T19:14:17;31.50;;;31.00;;
74810;SDS011;63340;48.404;-4.506;2022-12-07T19:17:06;29.75;;;26.75;;
74810;SDS011;63340;48.404;-4.506;2022-12-07T19:19:39;29.00;;;28.75;;
74810;SDS011;63340;48.404;-4.506;2022-12-07T19:22:10;32.50;;;29.50;;
74810;SDS011;63340;48.404;-4.506;2022-12-07T19:24:40;30.75;;;30.75;;
74810;SDS011;63340;48.404;-4.506;2022-12-07T19:27:27;29.75;;;28.00;;
74810;SDS011;63340;48.404;-4.506;2022-12-07T19:29:54;27.25;;;26.25;;
74810;SDS011;63340;48.404;-4.506;2022-12-07T19:32:25;31.00;;;30.75;;
74810;SDS011;63340;48.404;-4.506;2022-12-07T19:34:55;25.25;;;24.75;;
74810;SDS011;63340;48.404;-4.506;2022-12-07T19:37:24;30.00;;;26.75;;